sensor_id;sensor_type;location;lat;lon;timestamp;P1;durP1;ratioP1;P2;durP2;ratioP2
22697;SDS011;11516;51.612;7.510;2022-11-18T00:01:06;8.88;;;4.13;;
22697;SDS011;11516;51.612;7.510;2022-11-18T00:03:31;6.82;;;4.60;;
22697;SDS011;11516;51.612;7.510;2022-11-18T00:05:57;8.10;;;4.70;;
22697;SDS011;11516;51.612;7.510;2022-11-18T00:08:23;7.63;;;4.50;;
22697;SDS011;11516;51.612;7.510;2022-11-18T00:10:50;8.45;;;4.53;;
22697;SDS011;11516;51.612;7.510;2022-11-18T00:13:16;6.68;;;4.10;;
22697;SDS011;11516;51.612;7.510;2022-11-18T00:16:04;6.85;;;4.22;;
22697;SDS011;11516;51.612;7.510;2022-11-18T00:18:31;8.77;;;4.72;;
22697;SDS011;11516;51.612;7.510;2022-11-18T00:21:05;9.38;;;4.68;;
22697;SDS011;11516;51.612;7.510;2022-11-18T00:23:32;7.57;;;4.30;;
22697;SDS011;11516;51.612;7.510;2022-11-18T00:26:05;7.25;;;4.82;;
22697;SDS011;11516;51.612;7.510;2022-11-18T00:28:33;8.95;;;4.82;;
22697;SDS011;11516;51.612;7.510;2022-11-18T00:31:00;7.95;;;4.82;;
22697;SDS011;11516;51.612;7.510;2022-11-18T00:33:29;8.65;;;4.85;;
22697;SDS011;11516;51.612;7.510;2022-11-18T00:35:56;9.27;;;5.10;;
22697;SDS011;11516;51.612;7.510;2022-11-18T00:38:21;8.43;;;4.47;;
22697;SDS011;11516;51.612;7.510;2022-11-18T00:40:47;9.20;;;4.78;;
22697;SDS011;11516;51.612;7.510;2022-11-18T00:43:13;11.83;;;5.07;;
22697;SDS011;11516;51.612;7.510;2022-11-18T00:45:38;7.93;;;4.70;;
22697;SDS011;11516;51.612;7.510;2022-11-18T00:48:04;8.02;;;5.30;;
22697;SDS011;11516;51.612;7.510;2022-11-18T00:50:30;8.70;;;5.50;;
22697;SDS011;11516;51.612;7.510;2022-11-18T00:52:57;8.40;;;6.05;;
22697;SDS011;11516;51.612;7.510;2022-11-18T00:55:22;10.80;;;5.97;;
22697;SDS011;11516;51.612;7.510;2022-11-18T00:57:48;9.73;;;5.90;;
22697;SDS011;11516;51.612;7.510;2022-11-18T01:00:13;7.90;;;5.47;;
22697;SDS011;11516;51.612;7.510;2022-11-18T01:02:39;9.77;;;5.30;;
22697;SDS011;11516;51.612;7.510;2022-11-18T01:05:05;7.17;;;4.93;;
22697;SDS011;11516;51.612;7.510;2022-11-18T01:07:30;8.57;;;4.88;;
22697;SDS011;11516;51.612;7.510;2022-11-18T01:09:56;8.23;;;4.67;;
22697;SDS011;11516;51.612;7.510;2022-11-18T01:12:22;7.88;;;5.15;;
22697;SDS011;11516;51.612;7.510;2022-11-18T01:15:16;7.35;;;4.75;;
22697;SDS011;11516;51.612;7.510;2022-11-18T01:17:42;8.80;;;4.60;;
22697;SDS011;11516;51.612;7.510;2022-11-18T01:20:07;7.43;;;4.68;;
22697;SDS011;11516;51.612;7.510;2022-11-18T01:22:33;6.18;;;4.30;;
22697;SDS011;11516;51.612;7.510;2022-11-18T01:24:59;8.07;;;4.33;;
22697;SDS011;11516;51.612;7.510;2022-11-18T01:27:25;6.07;;;3.88;;
22697;SDS011;11516;51.612;7.510;2022-11-18T01:29:50;5.47;;;4.13;;
22697;SDS011;11516;51.612;7.510;2022-11-18T01:32:16;6.23;;;4.10;;
22697;SDS011;11516;51.612;7.510;2022-11-18T01:34:41;6.67;;;4.50;;
22697;SDS011;11516;51.612;7.510;2022-11-18T01:37:06;5.97;;;4.53;;
22697;SDS011;11516;51.612;7.510;2022-11-18T01:39:32;6.95;;;4.32;;
22697;SDS011;11516;51.612;7.510;2022-11-18T01:41:58;8.03;;;4.70;;
22697;SDS011;11516;51.612;7.510;2022-11-18T01:47:29;6.93;;;4.95;;
22697;SDS011;11516;51.612;7.510;2022-11-18T01:49:59;6.25;;;3.80;;
22697;SDS011;11516;51.612;7.510;2022-11-18T01:52:26;7.03;;;4.50;;
22697;SDS011;11516;51.612;7.510;2022-11-18T01:54:53;8.75;;;4.72;;
22697;SDS011;11516;51.612;7.510;2022-11-18T01:57:23;7.80;;;5.15;;
22697;SDS011;11516;51.612;7.510;2022-11-18T01:59:52;7.53;;;5.13;;
22697;SDS011;11516;51.612;7.510;2022-11-18T02:02:20;7.03;;;5.00;;
22697;SDS011;11516;51.612;7.510;2022-11-18T02:04:47;9.32;;;5.32;;
22697;SDS011;11516;51.612;7.510;2022-11-18T02:07:14;9.68;;;5.72;;
22697;SDS011;11516;51.612;7.510;2022-11-18T02:09:40;8.05;;;5.55;;
22697;SDS011;11516;51.612;7.510;2022-11-18T02:12:07;8.23;;;5.65;;
22697;SDS011;11516;51.612;7.510;2022-11-18T02:14:34;7.70;;;5.18;;
22697;SDS011;11516;51.612;7.510;2022-11-18T02:17:03;7.97;;;5.57;;
22697;SDS011;11516;51.612;7.510;2022-11-18T02:25:03;7.97;;;5.22;;
22697;SDS011;11516;51.612;7.510;2022-11-18T02:30:08;9.00;;;5.10;;
22697;SDS011;11516;51.612;7.510;2022-11-18T02:32:43;7.35;;;4.70;;
22697;SDS011;11516;51.612;7.510;2022-11-18T02:35:46;7.22;;;5.43;;
22697;SDS011;11516;51.612;7.510;2022-11-18T02:38:25;9.63;;;5.78;;
22697;SDS011;11516;51.612;7.510;2022-11-18T02:40:57;7.55;;;4.90;;
22697;SDS011;11516;51.612;7.510;2022-11-18T02:43:32;7.90;;;4.20;;
22697;SDS011;11516;51.612;7.510;2022-11-18T02:46:05;7.93;;;3.15;;
22697;SDS011;11516;51.612;7.510;2022-11-18T02:48:34;5.88;;;3.13;;
22697;SDS011;11516;51.612;7.510;2022-11-18T02:51:05;5.93;;;3.55;;
22697;SDS011;11516;51.612;7.510;2022-11-18T02:53:33;10.55;;;4.85;;
22697;SDS011;11516;51.612;7.510;2022-11-18T02:56:00;8.60;;;5.57;;
22697;SDS011;11516;51.612;7.510;2022-11-18T02:58:27;10.95;;;6.80;;
22697;SDS011;11516;51.612;7.510;2022-11-18T03:00:53;11.95;;;7.43;;
22697;SDS011;11516;51.612;7.510;2022-11-18T03:03:29;11.70;;;5.97;;
22697;SDS011;11516;51.612;7.510;2022-11-18T03:05:59;8.05;;;4.47;;
22697;SDS011;11516;51.612;7.510;2022-11-18T03:08:48;6.65;;;3.67;;
22697;SDS011;11516;51.612;7.510;2022-11-18T03:11:24;6.05;;;2.80;;
22697;SDS011;11516;51.612;7.510;2022-11-18T03:16:38;7.30;;;3.10;;
22697;SDS011;11516;51.612;7.510;2022-11-18T03:19:17;7.00;;;3.10;;
22697;SDS011;11516;51.612;7.510;2022-11-18T03:21:56;5.47;;;3.33;;
22697;SDS011;11516;51.612;7.510;2022-11-18T03:24:32;6.47;;;3.33;;
22697;SDS011;11516;51.612;7.510;2022-11-18T03:27:22;5.10;;;3.30;;
22697;SDS011;11516;51.612;7.510;2022-11-18T03:29:50;6.07;;;3.00;;
22697;SDS011;11516;51.612;7.510;2022-11-18T03:32:22;6.88;;;3.50;;
22697;SDS011;11516;51.612;7.510;2022-11-18T03:34:54;6.10;;;3.05;;
22697;SDS011;11516;51.612;7.510;2022-11-18T03:37:23;5.17;;;3.10;;
22697;SDS011;11516;51.612;7.510;2022-11-18T03:39:52;6.17;;;3.40;;
22697;SDS011;11516;51.612;7.510;2022-11-18T03:45:25;8.32;;;3.53;;
22697;SDS011;11516;51.612;7.510;2022-11-18T03:48:04;6.88;;;3.30;;
22697;SDS011;11516;51.612;7.510;2022-11-18T03:50:36;6.40;;;3.60;;
22697;SDS011;11516;51.612;7.510;2022-11-18T03:53:06;9.40;;;4.17;;
22697;SDS011;11516;51.612;7.510;2022-11-18T03:55:35;5.88;;;3.55;;
22697;SDS011;11516;51.612;7.510;2022-11-18T03:58:22;5.93;;;3.85;;
22697;SDS011;11516;51.612;7.510;2022-11-18T04:00:49;5.65;;;4.00;;
22697;SDS011;11516;51.612;7.510;2022-11-18T04:03:19;8.20;;;3.67;;
22697;SDS011;11516;51.612;7.510;2022-11-18T04:05:44;5.10;;;3.70;;
22697;SDS011;11516;51.612;7.510;2022-11-18T04:08:18;4.60;;;3.30;;
22697;SDS011;11516;51.612;7.510;2022-11-18T04:14:09;6.68;;;3.67;;
22697;SDS011;11516;51.612;7.510;2022-11-18T04:16:42;5.28;;;3.50;;
22697;SDS011;11516;51.612;7.510;2022-11-18T04:19:09;9.23;;;4.00;;
22697;SDS011;11516;51.612;7.510;2022-11-18T04:21:35;5.57;;;3.55;;
22697;SDS011;11516;51.612;7.510;2022-11-18T04:24:00;5.63;;;4.00;;
22697;SDS011;11516;51.612;7.510;2022-11-18T04:26:26;6.20;;;4.30;;
22697;SDS011;11516;51.612;7.510;2022-11-18T04:28:51;6.93;;;3.93;;
22697;SDS011;11516;51.612;7.510;2022-11-18T04:31:17;8.87;;;3.93;;
22697;SDS011;11516;51.612;7.510;2022-11-18T04:33:42;6.45;;;3.72;;
22697;SDS011;11516;51.612;7.510;2022-11-18T04:36:08;7.55;;;3.88;;
22697;SDS011;11516;51.612;7.510;2022-11-18T04:38:33;4.90;;;3.60;;
22697;SDS011;11516;51.612;7.510;2022-11-18T04:40:59;7.50;;;3.80;;
22697;SDS011;11516;51.612;7.510;2022-11-18T04:43:24;6.38;;;3.88;;
22697;SDS011;11516;51.612;7.510;2022-11-18T04:45:50;8.30;;;4.22;;
22697;SDS011;11516;51.612;7.510;2022-11-18T04:48:15;5.07;;;3.73;;
22697;SDS011;11516;51.612;7.510;2022-11-18T04:50:43;5.07;;;3.88;;
22697;SDS011;11516;51.612;7.510;2022-11-18T04:53:08;6.13;;;4.23;;
22697;SDS011;11516;51.612;7.510;2022-11-18T04:55:34;6.18;;;3.90;;
22697;SDS011;11516;51.612;7.510;2022-11-18T04:58:00;7.00;;;4.15;;
22697;SDS011;11516;51.612;7.510;2022-11-18T05:00:26;9.20;;;4.23;;
22697;SDS011;11516;51.612;7.510;2022-11-18T05:02:52;7.83;;;4.60;;
22697;SDS011;11516;51.612;7.510;2022-11-18T05:05:17;7.15;;;4.60;;
22697;SDS011;11516;51.612;7.510;2022-11-18T05:07:43;7.40;;;4.97;;
22697;SDS011;11516;51.612;7.510;2022-11-18T05:10:08;7.75;;;4.82;;
22697;SDS011;11516;51.612;7.510;2022-11-18T05:12:34;11.88;;;5.25;;
22697;SDS011;11516;51.612;7.510;2022-11-18T05:15:16;11.57;;;5.43;;
22697;SDS011;11516;51.612;7.510;2022-11-18T05:17:43;9.18;;;5.20;;
22697;SDS011;11516;51.612;7.510;2022-11-18T05:20:09;7.65;;;5.13;;
22697;SDS011;11516;51.612;7.510;2022-11-18T05:22:35;13.15;;;4.85;;
22697;SDS011;11516;51.612;7.510;2022-11-18T05:25:01;11.27;;;5.27;;
22697;SDS011;11516;51.612;7.510;2022-11-18T05:27:27;7.93;;;4.28;;
22697;SDS011;11516;51.612;7.510;2022-11-18T05:29:53;8.97;;;3.60;;
22697;SDS011;11516;51.612;7.510;2022-11-18T05:32:18;7.78;;;2.92;;
22697;SDS011;11516;51.612;7.510;2022-11-18T05:34:44;2.20;;;1.40;;
22697;SDS011;11516;51.612;7.510;2022-11-18T05:37:09;3.00;;;1.30;;
22697;SDS011;11516;51.612;7.510;2022-11-18T05:39:35;2.42;;;1.40;;
22697;SDS011;11516;51.612;7.510;2022-11-18T05:42:01;2.80;;;1.83;;
22697;SDS011;11516;51.612;7.510;2022-11-18T05:44:46;4.32;;;2.08;;
22697;SDS011;11516;51.612;7.510;2022-11-18T05:47:11;6.33;;;2.40;;
22697;SDS011;11516;51.612;7.510;2022-11-18T05:49:37;4.80;;;2.50;;
22697;SDS011;11516;51.612;7.510;2022-11-18T05:52:02;5.30;;;2.88;;
22697;SDS011;11516;51.612;7.510;2022-11-18T05:54:28;5.40;;;3.27;;
22697;SDS011;11516;51.612;7.510;2022-11-18T05:56:54;7.93;;;3.30;;
22697;SDS011;11516;51.612;7.510;2022-11-18T05:59:19;8.52;;;3.50;;
22697;SDS011;11516;51.612;7.510;2022-11-18T06:01:50;6.53;;;3.70;;
22697;SDS011;11516;51.612;7.510;2022-11-18T06:04:25;8.98;;;3.60;;
22697;SDS011;11516;51.612;7.510;2022-11-18T06:07:03;6.68;;;3.53;;
22697;SDS011;11516;51.612;7.510;2022-11-18T06:09:34;5.30;;;3.72;;
22697;SDS011;11516;51.612;7.510;2022-11-18T06:12:02;7.60;;;3.90;;
22697;SDS011;11516;51.612;7.510;2022-11-18T06:14:37;5.75;;;3.60;;
22697;SDS011;11516;51.612;7.510;2022-11-18T06:17:08;7.10;;;3.78;;
22697;SDS011;11516;51.612;7.510;2022-11-18T06:19:38;10.23;;;4.18;;
22697;SDS011;11516;51.612;7.510;2022-11-18T06:22:03;9.05;;;4.05;;
22697;SDS011;11516;51.612;7.510;2022-11-18T06:24:30;6.80;;;4.03;;
22697;SDS011;11516;51.612;7.510;2022-11-18T06:26:56;7.47;;;3.90;;
22697;SDS011;11516;51.612;7.510;2022-11-18T06:29:23;2.20;;;0.60;;
22697;SDS011;11516;51.612;7.510;2022-11-18T06:31:48;0.50;;;0.50;;
22697;SDS011;11516;51.612;7.510;2022-11-18T06:34:14;0.10;;;0.10;;
22697;SDS011;11516;51.612;7.510;2022-11-18T06:36:39;0.88;;;0.88;;
22697;SDS011;11516;51.612;7.510;2022-11-18T06:39:05;1.90;;;0.65;;
22697;SDS011;11516;51.612;7.510;2022-11-18T06:41:31;0.17;;;0.17;;
22697;SDS011;11516;51.612;7.510;2022-11-18T06:43:57;0.57;;;0.57;;
22697;SDS011;11516;51.612;7.510;2022-11-18T06:46:23;0.35;;;0.35;;
22697;SDS011;11516;51.612;7.510;2022-11-18T06:49:08;1.00;;;0.20;;
22697;SDS011;11516;51.612;7.510;2022-11-18T06:51:34;0.43;;;0.32;;
22697;SDS011;11516;51.612;7.510;2022-11-18T06:53:59;0.10;;;0.10;;
22697;SDS011;11516;51.612;7.510;2022-11-18T06:56:25;0.60;;;0.50;;
22697;SDS011;11516;51.612;7.510;2022-11-18T06:58:54;0.13;;;0.13;;
22697;SDS011;11516;51.612;7.510;2022-11-18T07:01:23;7.22;;;0.68;;
22697;SDS011;11516;51.612;7.510;2022-11-18T07:03:50;0.40;;;0.40;;
22697;SDS011;11516;51.612;7.510;2022-11-18T07:06:17;0.30;;;0.30;;
22697;SDS011;11516;51.612;7.510;2022-11-18T07:08:44;0.40;;;0.40;;
22697;SDS011;11516;51.612;7.510;2022-11-18T07:11:11;0.20;;;0.20;;
22697;SDS011;11516;51.612;7.510;2022-11-18T07:13:39;0.45;;;0.45;;
22697;SDS011;11516;51.612;7.510;2022-11-18T07:16:06;0.80;;;0.70;;
22697;SDS011;11516;51.612;7.510;2022-11-18T07:18:36;3.00;;;0.90;;
22697;SDS011;11516;51.612;7.510;2022-11-18T07:21:10;0.20;;;0.20;;
22697;SDS011;11516;51.612;7.510;2022-11-18T07:23:36;0.17;;;0.17;;
22697;SDS011;11516;51.612;7.510;2022-11-18T07:26:02;1.10;;;0.80;;
22697;SDS011;11516;51.612;7.510;2022-11-18T07:28:28;0.40;;;0.40;;
22697;SDS011;11516;51.612;7.510;2022-11-18T07:33:31;0.20;;;0.20;;
22697;SDS011;11516;51.612;7.510;2022-11-18T07:36:01;0.35;;;0.35;;
22697;SDS011;11516;51.612;7.510;2022-11-18T07:38:28;0.10;;;0.10;;
22697;SDS011;11516;51.612;7.510;2022-11-18T07:40:54;0.43;;;0.43;;
22697;SDS011;11516;51.612;7.510;2022-11-18T07:43:20;0.17;;;0.17;;
22697;SDS011;11516;51.612;7.510;2022-11-18T07:45:45;0.80;;;0.47;;
22697;SDS011;11516;51.612;7.510;2022-11-18T07:48:11;0.20;;;0.20;;
22697;SDS011;11516;51.612;7.510;2022-11-18T07:50:36;1.20;;;0.87;;
22697;SDS011;11516;51.612;7.510;2022-11-18T07:53:02;0.50;;;0.50;;
22697;SDS011;11516;51.612;7.510;2022-11-18T07:55:27;0.32;;;0.32;;
22697;SDS011;11516;51.612;7.510;2022-11-18T07:57:54;0.35;;;0.35;;
22697;SDS011;11516;51.612;7.510;2022-11-18T08:00:20;0.73;;;0.73;;
22697;SDS011;11516;51.612;7.510;2022-11-18T08:02:48;2.40;;;1.20;;
22697;SDS011;11516;51.612;7.510;2022-11-18T08:05:14;0.10;;;0.10;;
22697;SDS011;11516;51.612;7.510;2022-11-18T08:07:40;0.50;;;0.50;;
22697;SDS011;11516;51.612;7.510;2022-11-18T08:10:05;1.90;;;1.20;;
22697;SDS011;11516;51.612;7.510;2022-11-18T08:12:31;0.82;;;0.82;;
22697;SDS011;11516;51.612;7.510;2022-11-18T08:14:57;1.00;;;0.80;;
22697;SDS011;11516;51.612;7.510;2022-11-18T08:17:23;0.43;;;0.43;;
22697;SDS011;11516;51.612;7.510;2022-11-18T08:19:48;0.30;;;0.30;;
22697;SDS011;11516;51.612;7.510;2022-11-18T08:22:13;0.45;;;0.45;;
22697;SDS011;11516;51.612;7.510;2022-11-18T08:24:42;1.60;;;0.75;;
22697;SDS011;11516;51.612;7.510;2022-11-18T08:27:09;0.70;;;0.70;;
22697;SDS011;11516;51.612;7.510;2022-11-18T08:29:34;0.50;;;0.50;;
22697;SDS011;11516;51.612;7.510;2022-11-18T08:32:00;0.45;;;0.45;;
22697;SDS011;11516;51.612;7.510;2022-11-18T08:34:26;0.70;;;0.60;;
22697;SDS011;11516;51.612;7.510;2022-11-18T08:36:51;0.77;;;0.73;;
22697;SDS011;11516;51.612;7.510;2022-11-18T08:39:17;0.70;;;0.30;;
22697;SDS011;11516;51.612;7.510;2022-11-18T08:41:42;0.97;;;0.90;;
22697;SDS011;11516;51.612;7.510;2022-11-18T08:44:10;1.13;;;1.10;;
22697;SDS011;11516;51.612;7.510;2022-11-18T08:46:38;0.30;;;0.30;;
22697;SDS011;11516;51.612;7.510;2022-11-18T08:49:03;0.63;;;0.63;;
22697;SDS011;11516;51.612;7.510;2022-11-18T08:51:29;0.67;;;0.67;;
22697;SDS011;11516;51.612;7.510;2022-11-18T08:53:54;1.40;;;1.30;;
22697;SDS011;11516;51.612;7.510;2022-11-18T08:56:21;1.58;;;1.15;;
22697;SDS011;11516;51.612;7.510;2022-11-18T08:58:47;4.40;;;1.45;;
22697;SDS011;11516;51.612;7.510;2022-11-18T09:01:16;1.73;;;1.40;;
22697;SDS011;11516;51.612;7.510;2022-11-18T09:03:41;0.93;;;0.77;;
22697;SDS011;11516;51.612;7.510;2022-11-18T09:06:14;0.50;;;0.50;;
22697;SDS011;11516;51.612;7.510;2022-11-18T09:08:44;0.93;;;0.93;;
22697;SDS011;11516;51.612;7.510;2022-11-18T09:11:14;2.30;;;1.70;;
22697;SDS011;11516;51.612;7.510;2022-11-18T09:13:45;2.57;;;2.33;;
22697;SDS011;11516;51.612;7.510;2022-11-18T09:16:11;3.58;;;1.27;;
22697;SDS011;11516;51.612;7.510;2022-11-18T09:18:37;1.05;;;0.95;;
22697;SDS011;11516;51.612;7.510;2022-11-18T09:21:04;0.90;;;0.90;;
22697;SDS011;11516;51.612;7.510;2022-11-18T09:23:31;0.80;;;0.80;;
22697;SDS011;11516;51.612;7.510;2022-11-18T09:26:02;1.40;;;1.20;;
22697;SDS011;11516;51.612;7.510;2022-11-18T09:28:29;0.80;;;0.60;;
22697;SDS011;11516;51.612;7.510;2022-11-18T09:30:55;0.85;;;0.85;;
22697;SDS011;11516;51.612;7.510;2022-11-18T09:33:21;2.60;;;1.97;;
22697;SDS011;11516;51.612;7.510;2022-11-18T09:35:47;0.38;;;0.38;;
22697;SDS011;11516;51.612;7.510;2022-11-18T09:38:13;0.40;;;0.40;;
22697;SDS011;11516;51.612;7.510;2022-11-18T09:40:43;0.73;;;0.73;;
22697;SDS011;11516;51.612;7.510;2022-11-18T09:49:15;0.93;;;0.90;;
22697;SDS011;11516;51.612;7.510;2022-11-18T09:51:49;0.70;;;0.70;;
22697;SDS011;11516;51.612;7.510;2022-11-18T09:54:20;0.82;;;0.82;;
22697;SDS011;11516;51.612;7.510;2022-11-18T09:56:58;0.57;;;0.57;;
22697;SDS011;11516;51.612;7.510;2022-11-18T09:59:24;0.80;;;0.70;;
22697;SDS011;11516;51.612;7.510;2022-11-18T10:01:53;0.93;;;0.82;;
22697;SDS011;11516;51.612;7.510;2022-11-18T10:04:22;1.00;;;0.93;;
22697;SDS011;11516;51.612;7.510;2022-11-18T10:06:48;1.05;;;0.95;;
22697;SDS011;11516;51.612;7.510;2022-11-18T10:09:29;1.38;;;1.02;;
22697;SDS011;11516;51.612;7.510;2022-11-18T10:12:02;1.20;;;1.20;;
22697;SDS011;11516;51.612;7.510;2022-11-18T10:20:15;1.30;;;1.23;;
22697;SDS011;11516;51.612;7.510;2022-11-18T10:22:53;0.82;;;0.82;;
22697;SDS011;11516;51.612;7.510;2022-11-18T10:25:22;0.75;;;0.75;;
22697;SDS011;11516;51.612;7.510;2022-11-18T10:27:48;0.63;;;0.63;;
22697;SDS011;11516;51.612;7.510;2022-11-18T10:30:16;2.00;;;1.05;;
22697;SDS011;11516;51.612;7.510;2022-11-18T10:33:43;2.30;;;1.35;;
22697;SDS011;11516;51.612;7.510;2022-11-18T10:35:46;7.68;;;1.50;;
22697;SDS011;11516;51.612;7.510;2022-11-18T10:38:16;1.27;;;1.17;;
22697;SDS011;11516;51.612;7.510;2022-11-18T10:48:47;2.13;;;0.32;;
22697;SDS011;11516;51.612;7.510;2022-11-18T10:51:30;5.32;;;2.22;;
22697;SDS011;11516;51.612;7.510;2022-11-18T10:54:05;1.70;;;1.60;;
22697;SDS011;11516;51.612;7.510;2022-11-18T10:56:55;1.20;;;1.10;;
22697;SDS011;11516;51.612;7.510;2022-11-18T10:59:34;2.08;;;1.90;;
22697;SDS011;11516;51.612;7.510;2022-11-18T11:02:18;1.42;;;1.38;;
22697;SDS011;11516;51.612;7.510;2022-11-18T11:04:44;1.90;;;1.20;;
22697;SDS011;11516;51.612;7.510;2022-11-18T11:07:53;1.15;;;1.08;;
22697;SDS011;11516;51.612;7.510;2022-11-18T11:12:38;3.25;;;1.35;;
22697;SDS011;11516;51.612;7.510;2022-11-18T11:17:58;0.88;;;0.88;;
22697;SDS011;11516;51.612;7.510;2022-11-18T11:20:45;1.80;;;1.70;;
22697;SDS011;11516;51.612;7.510;2022-11-18T11:23:12;2.08;;;1.67;;
22697;SDS011;11516;51.612;7.510;2022-11-18T11:25:42;1.60;;;1.27;;
22697;SDS011;11516;51.612;7.510;2022-11-18T11:28:28;1.25;;;1.15;;
22697;SDS011;11516;51.612;7.510;2022-11-18T11:31:09;1.42;;;1.38;;
22697;SDS011;11516;51.612;7.510;2022-11-18T11:33:53;1.60;;;1.55;;
22697;SDS011;11516;51.612;7.510;2022-11-18T11:36:35;2.78;;;1.30;;
22697;SDS011;11516;51.612;7.510;2022-11-18T11:42:10;1.35;;;1.23;;
22697;SDS011;11516;51.612;7.510;2022-11-18T11:50:27;0.88;;;0.85;;
22697;SDS011;11516;51.612;7.510;2022-11-18T11:56:16;1.15;;;1.08;;
22697;SDS011;11516;51.612;7.510;2022-11-18T11:59:07;1.52;;;1.23;;
22697;SDS011;11516;51.612;7.510;2022-11-18T12:07:13;0.52;;;0.52;;
22697;SDS011;11516;51.612;7.510;2022-11-18T12:09:50;1.48;;;1.38;;
22697;SDS011;11516;51.612;7.510;2022-11-18T12:12:24;2.60;;;1.10;;
22697;SDS011;11516;51.612;7.510;2022-11-18T12:15:01;1.10;;;1.05;;
22697;SDS011;11516;51.612;7.510;2022-11-18T12:17:44;0.50;;;0.50;;
22697;SDS011;11516;51.612;7.510;2022-11-18T12:23:08;0.60;;;0.60;;
22697;SDS011;11516;51.612;7.510;2022-11-18T12:33:48;2.15;;;0.80;;
22697;SDS011;11516;51.612;7.510;2022-11-18T12:36:30;2.10;;;1.42;;
22697;SDS011;11516;51.612;7.510;2022-11-18T12:41:57;1.42;;;0.85;;
22697;SDS011;11516;51.612;7.510;2022-11-18T12:44:43;1.70;;;1.60;;
22697;SDS011;11516;51.612;7.510;2022-11-18T12:47:11;4.40;;;1.50;;
22697;SDS011;11516;51.612;7.510;2022-11-18T12:54:54;2.20;;;1.67;;
22697;SDS011;11516;51.612;7.510;2022-11-18T12:57:22;0.70;;;0.40;;
22697;SDS011;11516;51.612;7.510;2022-11-18T12:59:50;0.70;;;0.70;;
22697;SDS011;11516;51.612;7.510;2022-11-18T13:05:05;2.15;;;1.65;;
22697;SDS011;11516;51.612;7.510;2022-11-18T13:07:34;1.65;;;1.50;;
22697;SDS011;11516;51.612;7.510;2022-11-18T13:10:31;1.30;;;1.20;;
22697;SDS011;11516;51.612;7.510;2022-11-18T13:12:59;1.30;;;1.23;;
22697;SDS011;11516;51.612;7.510;2022-11-18T13:15:26;1.02;;;1.02;;
22697;SDS011;11516;51.612;7.510;2022-11-18T13:18:15;1.07;;;1.03;;
22697;SDS011;11516;51.612;7.510;2022-11-18T13:20:42;3.17;;;2.17;;
22697;SDS011;11516;51.612;7.510;2022-11-18T13:23:27;1.40;;;1.30;;
22697;SDS011;11516;51.612;7.510;2022-11-18T13:31:24;1.08;;;0.98;;
22697;SDS011;11516;51.612;7.510;2022-11-18T13:34:15;1.00;;;1.00;;
22697;SDS011;11516;51.612;7.510;2022-11-18T13:36:43;0.73;;;0.73;;
22697;SDS011;11516;51.612;7.510;2022-11-18T13:39:18;1.13;;;1.13;;
22697;SDS011;11516;51.612;7.510;2022-11-18T13:42:05;2.10;;;1.60;;
22697;SDS011;11516;51.612;7.510;2022-11-18T13:44:43;1.70;;;1.60;;
22697;SDS011;11516;51.612;7.510;2022-11-18T13:47:12;1.23;;;1.15;;
22697;SDS011;11516;51.612;7.510;2022-11-18T13:50:12;2.63;;;1.90;;
22697;SDS011;11516;51.612;7.510;2022-11-18T13:52:52;1.05;;;1.05;;
22697;SDS011;11516;51.612;7.510;2022-11-18T13:55:44;1.60;;;1.53;;
22697;SDS011;11516;51.612;7.510;2022-11-18T14:00:53;2.00;;;1.38;;
22697;SDS011;11516;51.612;7.510;2022-11-18T14:03:31;6.82;;;2.00;;
22697;SDS011;11516;51.612;7.510;2022-11-18T14:06:00;0.95;;;0.95;;
22697;SDS011;11516;51.612;7.510;2022-11-18T14:08:36;1.05;;;1.02;;
22697;SDS011;11516;51.612;7.510;2022-11-18T14:11:03;1.35;;;1.25;;
22697;SDS011;11516;51.612;7.510;2022-11-18T14:13:34;1.88;;;1.77;;
22697;SDS011;11516;51.612;7.510;2022-11-18T14:16:02;1.58;;;1.48;;
22697;SDS011;11516;51.612;7.510;2022-11-18T14:18:44;2.38;;;2.17;;
22697;SDS011;11516;51.612;7.510;2022-11-18T14:21:12;2.13;;;1.95;;
22697;SDS011;11516;51.612;7.510;2022-11-18T14:23:41;1.55;;;1.45;;
22697;SDS011;11516;51.612;7.510;2022-11-18T14:26:08;2.40;;;1.98;;
22697;SDS011;11516;51.612;7.510;2022-11-18T14:28:35;1.42;;;1.33;;
22697;SDS011;11516;51.612;7.510;2022-11-18T14:36:42;1.70;;;1.35;;
22697;SDS011;11516;51.612;7.510;2022-11-18T14:39:22;6.63;;;2.00;;
22697;SDS011;11516;51.612;7.510;2022-11-18T14:41:53;2.87;;;1.83;;
22697;SDS011;11516;51.612;7.510;2022-11-18T14:44:20;2.17;;;1.85;;
22697;SDS011;11516;51.612;7.510;2022-11-18T14:46:50;2.35;;;2.15;;
22697;SDS011;11516;51.612;7.510;2022-11-18T14:49:20;4.35;;;2.97;;
22697;SDS011;11516;51.612;7.510;2022-11-18T14:51:48;2.60;;;2.40;;
22697;SDS011;11516;51.612;7.510;2022-11-18T14:54:15;4.25;;;2.40;;
22697;SDS011;11516;51.612;7.510;2022-11-18T14:56:41;3.00;;;2.58;;
22697;SDS011;11516;51.612;7.510;2022-11-18T14:59:10;2.95;;;1.60;;
22697;SDS011;11516;51.612;7.510;2022-11-18T15:01:37;2.80;;;2.58;;
22697;SDS011;11516;51.612;7.510;2022-11-18T15:04:03;3.17;;;2.88;;
22697;SDS011;11516;51.612;7.510;2022-11-18T15:06:28;2.80;;;2.58;;
22697;SDS011;11516;51.612;7.510;2022-11-18T15:08:54;3.67;;;2.80;;
22697;SDS011;11516;51.612;7.510;2022-11-18T15:11:20;3.80;;;2.70;;
22697;SDS011;11516;51.612;7.510;2022-11-18T15:13:45;3.33;;;1.97;;
22697;SDS011;11516;51.612;7.510;2022-11-18T15:16:24;2.83;;;2.45;;
22697;SDS011;11516;51.612;7.510;2022-11-18T15:18:58;4.30;;;2.88;;
22697;SDS011;11516;51.612;7.510;2022-11-18T15:21:26;3.20;;;2.97;;
22697;SDS011;11516;51.612;7.510;2022-11-18T15:23:52;2.78;;;2.58;;
22697;SDS011;11516;51.612;7.510;2022-11-18T15:26:19;2.40;;;2.30;;
22697;SDS011;11516;51.612;7.510;2022-11-18T15:28:49;2.83;;;2.58;;
22697;SDS011;11516;51.612;7.510;2022-11-18T15:31:16;3.03;;;2.67;;
22697;SDS011;11516;51.612;7.510;2022-11-18T15:33:43;4.70;;;2.30;;
22697;SDS011;11516;51.612;7.510;2022-11-18T15:36:12;2.40;;;2.20;;
22697;SDS011;11516;51.612;7.510;2022-11-18T15:38:40;2.40;;;2.20;;
22697;SDS011;11516;51.612;7.510;2022-11-18T15:41:06;3.10;;;1.65;;
22697;SDS011;11516;51.612;7.510;2022-11-18T15:43:36;1.63;;;1.63;;
22697;SDS011;11516;51.612;7.510;2022-11-18T15:46:02;3.50;;;2.20;;
22697;SDS011;11516;51.612;7.510;2022-11-18T15:48:27;2.00;;;1.90;;
22697;SDS011;11516;51.612;7.510;2022-11-18T15:50:53;1.30;;;1.05;;
22697;SDS011;11516;51.612;7.510;2022-11-18T15:53:18;3.58;;;2.03;;
22697;SDS011;11516;51.612;7.510;2022-11-18T15:55:44;2.10;;;1.90;;
22697;SDS011;11516;51.612;7.510;2022-11-18T15:58:09;2.10;;;2.00;;
22697;SDS011;11516;51.612;7.510;2022-11-18T16:00:35;3.57;;;1.97;;
22697;SDS011;11516;51.612;7.510;2022-11-18T16:03:00;2.43;;;2.30;;
22697;SDS011;11516;51.612;7.510;2022-11-18T16:05:26;1.80;;;1.53;;
22697;SDS011;11516;51.612;7.510;2022-11-18T16:07:51;2.10;;;2.00;;
22697;SDS011;11516;51.612;7.510;2022-11-18T16:10:17;1.42;;;0.77;;
22697;SDS011;11516;51.612;7.510;2022-11-18T16:13:01;2.80;;;2.38;;
22697;SDS011;11516;51.612;7.510;2022-11-18T16:15:27;3.67;;;2.30;;
22697;SDS011;11516;51.612;7.510;2022-11-18T16:18:07;1.80;;;1.08;;
22697;SDS011;11516;51.612;7.510;2022-11-18T16:20:33;2.67;;;2.08;;
22697;SDS011;11516;51.612;7.510;2022-11-18T16:22:59;1.20;;;1.10;;
22697;SDS011;11516;51.612;7.510;2022-11-18T16:25:25;1.50;;;1.25;;
22697;SDS011;11516;51.612;7.510;2022-11-18T16:27:52;6.10;;;1.40;;
22697;SDS011;11516;51.612;7.510;2022-11-18T16:30:18;2.63;;;2.00;;
22697;SDS011;11516;51.612;7.510;2022-11-18T16:33:02;1.55;;;1.42;;
22697;SDS011;11516;51.612;7.510;2022-11-18T16:35:28;1.10;;;1.00;;
22697;SDS011;11516;51.612;7.510;2022-11-18T16:37:53;1.30;;;1.23;;
22697;SDS011;11516;51.612;7.510;2022-11-18T16:40:19;0.57;;;0.57;;
22697;SDS011;11516;51.612;7.510;2022-11-18T16:42:48;1.73;;;1.17;;
22697;SDS011;11516;51.612;7.510;2022-11-18T16:45:14;1.60;;;1.40;;